Portada
METAR-TAF:

METAR-TAF

Aeropuertos :

Gibraltar, Gibraltar

Aeropuerto de Gibraltar

latitud: 36-09N, longitud: 005-21W, altitud: 5 m

Observación

El informe se hizo hace 52 minutos, a las 03:50 UTC
Viento 13 kt del suroeste
Temperatura 21°C
Humedad 73%
Presión 1012 hPa
Visibilidad 10 km o más

METAR: LXGB 210350Z AUTO 23013KT 9999 // NCD 21/16 Q1012

Hora: 06:42 (04:42 UTC)

Pronóstico

El informe se hizo hace 12 horas y 9 minutos, a las 16:33 UTC
Pronóstico válido del 20 a las 18 UTC al 20 a las 22 UTC
Viento 18 kt del oeste
Visibilidad 10 km o más
Escasas nubes a una altura de 3000 ft
Evolucionando progresivamente
del 20 a las 19 UTC al 20 a las 22 UTC
Viento 8 kt del oeste

TAF: LXGB 201633Z 2018/2022 26018KT 9999 FEW030 BECMG 2019/2022 27008KT

Observaciones y pronósticos meteorológicos de más de 4000 aeropuertos (mensajes METAR y TAF).

Los puntos amarillos y rojos representan las estaciones disponibles.

Ponga el ratón en el punto deseado para ver el nombre de la estación.

Haga clic para ver las observaciones y los pronósticos meteorológicos.

Para cambiar el mapa : haga clic en los botones verdes con una cruz de color negro para hacer un zoom, en el botón verde con un guión para alejar o en las flechas verdes para mapas adyacentes.


METAR-TAF: